Time;durP1;ratioP1;P1;durP2;ratioP2;P2;SDS_P1;SDS_P2;PMS_P1;PMS_P2;Temp;Humidity;BMP_temperature;BMP_pressure;BME280_temperature;BME280_humidity;BME280_pressure;Samples;Min_cycle;Max_cycle;Signal;HPM_P1;HPM_P2
2021/04/24 00:00:29;;;;;;;14.93;5.15;;;;;;;6.04;65.56;102436.34;5079999;28;20489;-66
2021/04/24 00:02:55;;;;;;;11.30;5.07;;;;;;;6.05;65.60;102440.69;5084463;28;20048;-66
2021/04/24 00:05:23;;;;;;;15.95;5.03;;;;;;;6.10;65.21;102444.28;5085435;22;20105;-68
2021/04/24 00:07:52;;;;;;;12.10;5.03;;;;;;;6.14;64.73;102440.06;5055957;28;20048;-65
2021/04/24 00:10:19;;;;;;;11.43;4.80;;;;;;;6.09;65.04;102446.84;5057145;28;20054;-65
2021/04/24 00:12:45;;;;;;;12.63;4.43;;;;;;;6.02;65.31;102449.25;5062146;28;20618;-67
2021/04/24 00:15:14;;;;;;;12.43;4.63;;;;;;;5.97;65.27;102447.34;5064891;28;20062;-63
2021/04/24 00:17:40;;;;;;;12.07;4.90;;;;;;;5.91;65.49;102450.63;5066881;28;20053;-67
2021/04/24 00:20:09;;;;;;;16.60;5.00;;;;;;;5.90;65.49;102449.75;5055995;28;20045;-65
2021/04/24 00:22:35;;;;;;;16.15;5.03;;;;;;;5.93;65.13;102448.09;5060735;28;20568;-67
2021/04/24 00:25:02;;;;;;;11.68;5.18;;;;;;;5.90;65.25;102454.91;5069428;28;20041;-66
2021/04/24 00:27:27;;;;;;;13.40;4.68;;;;;;;5.86;65.43;102449.63;5060353;28;20055;-63
2021/04/24 00:29:53;;;;;;;15.70;5.00;;;;;;;5.82;65.42;102446.09;5060651;28;20044;-64
2021/04/24 00:32:20;;;;;;;16.65;4.53;;;;;;;5.82;65.43;102450.38;5069387;28;20068;-70
2021/04/24 00:34:46;;;;;;;11.70;5.25;;;;;;;5.75;65.16;102436.41;5066386;28;20055;-65
2021/04/24 00:37:12;;;;;;;13.30;5.13;;;;;;;5.74;65.20;102442.38;5069737;28;20487;-65
2021/04/24 00:39:38;;;;;;;19.35;4.85;;;;;;;5.65;65.76;102440.44;5066972;28;20139;-65
2021/04/24 00:42:05;;;;;;;13.15;4.90;;;;;;;5.62;65.97;102434.31;5066033;28;20041;-65
2021/04/24 00:44:31;;;;;;;11.85;4.50;;;;;;;5.52;65.91;102441.81;5065504;28;20059;-64
2021/04/24 00:46:58;;;;;;;13.27;4.60;;;;;;;5.50;65.71;102438.28;5069711;28;20040;-63
2021/04/24 00:49:25;;;;;;;10.35;4.65;;;;;;;5.38;66.11;102438.81;5066538;28;20056;-68
2021/04/24 00:51:51;;;;;;;14.20;4.60;;;;;;;5.27;66.17;102435.88;5059142;28;20083;-65
2021/04/24 00:54:17;;;;;;;12.73;5.65;;;;;;;5.28;66.16;102437.66;5069907;28;20045;-65
2021/04/24 00:56:43;;;;;;;14.60;4.80;;;;;;;5.31;66.29;102430.84;5062359;28;20531;-65
2021/04/24 00:59:09;;;;;;;12.55;4.18;;;;;;;5.25;66.74;102434.97;5057961;28;20427;-65
2021/04/24 01:01:35;;;;;;;15.35;4.63;;;;;;;5.27;66.75;102433.31;5058492;28;20049;-63
2021/04/24 01:04:01;;;;;;;12.65;4.43;;;;;;;5.22;66.07;102431.41;5062458;28;20048;-65
2021/04/24 01:06:28;;;;;;;13.63;4.78;;;;;;;5.19;65.85;102437.38;5060635;28;20052;-65
2021/04/24 01:08:54;;;;;;;16.88;4.95;;;;;;;5.16;66.32;102431.25;5067614;28;20044;-63
2021/04/24 01:11:20;;;;;;;11.35;4.88;;;;;;;5.16;65.50;102432.09;5066760;28;20095;-66
2021/04/24 01:13:46;;;;;;;10.73;4.53;;;;;;;5.12;65.83;102431.13;5072620;28;20151;-65
2021/04/24 01:16:12;;;;;;;14.30;4.70;;;;;;;5.09;65.70;102431.03;5063895;28;20106;-64
2021/04/24 01:18:39;;;;;;;12.02;4.70;;;;;;;5.11;66.30;102436.25;5069891;28;20052;-65
2021/04/24 01:21:06;;;;;;;12.43;4.65;;;;;;;5.03;66.66;102437.72;5068979;28;20052;-65
2021/04/24 01:23:33;;;;;;;10.70;4.53;;;;;;;5.01;66.36;102429.06;5066618;28;20041;-65
2021/04/24 01:26:00;;;;;;;11.70;4.18;;;;;;;5.01;66.17;102432.50;5068797;28;20055;-66
2021/04/24 01:28:27;;;;;;;10.38;4.50;;;;;;;4.97;65.76;102431.53;5062889;28;20048;-65
2021/04/24 01:30:53;;;;;;;11.55;4.95;;;;;;;4.96;65.76;102429.78;5070795;28;20554;-65
2021/04/24 01:33:19;;;;;;;12.68;4.85;;;;;;;4.93;65.97;102423.66;5071269;28;20056;-65
2021/04/24 01:35:45;;;;;;;11.27;5.07;;;;;;;4.98;65.58;102420.41;5070138;28;20143;-69
2021/04/24 01:38:12;;;;;;;11.52;5.03;;;;;;;4.90;65.99;102423.56;5068154;28;20045;-66
2021/04/24 01:40:39;;;;;;;11.13;4.68;;;;;;;4.85;66.00;102423.41;5069859;28;20041;-64
2021/04/24 01:43:06;;;;;;;15.13;5.05;;;;;;;4.93;65.97;102419.41;5070115;28;20450;-67
2021/04/24 01:45:33;;;;;;;13.07;4.90;;;;;;;4.91;66.07;102421.03;5065160;28;20045;-62
2021/04/24 01:47:59;;;;;;;13.70;4.88;;;;;;;4.93;65.31;102421.97;5063237;28;20053;-70
2021/04/24 01:50:29;;;;;;;10.73;4.22;;;;;;;4.80;66.23;102420.69;5072278;28;20040;-71
2021/04/24 01:52:55;;;;;;;11.02;4.13;;;;;;;4.84;66.25;102419.09;5067439;28;20040;-64
2021/04/24 01:55:24;;;;;;;10.77;4.68;;;;;;;4.84;65.86;102419.09;5065613;28;20094;-67
2021/04/24 01:57:52;;;;;;;10.48;4.40;;;;;;;4.74;66.00;102422.22;5068010;28;20494;-69
2021/04/24 02:00:23;;;;;;;14.80;5.50;;;;;;;4.70;65.90;102425.50;5064172;28;20045;-65
2021/04/24 02:02:49;;;;;;;8.52;4.40;;;;;;;4.69;66.80;102426.34;5068234;28;20086;-64
2021/04/24 02:05:16;;;;;;;22.92;6.25;;;;;;;4.77;66.24;102427.44;5063724;28;20045;-64
2021/04/24 02:07:42;;;;;;;13.05;4.95;;;;;;;4.85;65.93;102423.41;5068941;28;20094;-67
2021/04/24 02:10:10;;;;;;;15.13;5.20;;;;;;;4.83;66.24;102419.94;5064464;28;20083;-64
2021/04/24 02:12:36;;;;;;;12.85;4.40;;;;;;;4.78;65.77;102426.63;5062740;28;20048;-64
2021/04/24 02:15:05;;;;;;;13.45;5.25;;;;;;;4.80;65.60;102415.53;5062387;28;20709;-62
2021/04/24 02:17:31;;;;;;;9.98;4.82;;;;;;;4.77;66.15;102419.72;5065451;28;20124;-64
2021/04/24 02:19:57;;;;;;;13.95;6.18;;;;;;;4.76;65.87;102415.38;5066267;28;20541;-64
2021/04/24 02:22:24;;;;;;;10.93;4.32;;;;;;;4.77;65.38;102415.44;5063933;28;20147;-65
2021/04/24 02:24:53;;;;;;;13.63;5.05;;;;;;;4.73;65.90;102411.00;5061480;28;20057;-64
2021/04/24 02:27:20;;;;;;;11.73;4.43;;;;;;;4.67;66.03;102418.56;5064080;28;20410;-64
2021/04/24 02:29:46;;;;;;;16.48;5.47;;;;;;;4.69;65.99;102419.50;5058451;28;20479;-66
2021/04/24 02:32:15;;;;;;;10.50;4.75;;;;;;;4.66;66.06;102417.66;5067980;28;20048;-64
2021/04/24 02:34:44;;;;;;;14.50;4.50;;;;;;;4.57;66.22;102416.50;5061413;28;20517;-65
2021/04/24 02:37:11;;;;;;;13.60;5.65;;;;;;;4.47;67.26;102425.63;5072204;28;20048;-66
2021/04/24 02:39:40;;;;;;;11.57;4.72;;;;;;;4.39;67.56;102429.66;5069167;28;20462;-67
2021/04/24 02:42:08;;;;;;;13.00;5.20;;;;;;;4.30;67.54;102420.78;5070534;28;20055;-61
2021/04/24 02:44:35;;;;;;;12.23;4.43;;;;;;;4.31;67.06;102425.13;5060012;28;20052;-67
2021/04/24 02:47:01;;;;;;;12.15;5.65;;;;;;;4.35;67.61;102424.38;5066231;28;20056;-65
2021/04/24 02:49:28;;;;;;;11.32;4.53;;;;;;;4.43;66.88;102416.06;5067641;28;20051;-63
2021/04/24 02:51:56;;;;;;;10.02;4.40;;;;;;;4.33;67.30;102423.47;5071527;28;20049;-63
2021/04/24 02:54:22;;;;;;;12.32;4.97;;;;;;;4.28;67.42;102424.13;5072515;28;20044;-64
2021/04/24 02:56:48;;;;;;;9.77;5.03;;;;;;;4.28;67.34;102422.44;5069336;28;20053;-63
2021/04/24 02:59:14;;;;;;;10.93;4.00;;;;;;;4.22;66.95;102429.97;5062168;28;20071;-63
2021/04/24 03:01:41;;;;;;;11.27;5.43;;;;;;;4.27;67.57;102428.41;5064214;28;20483;-64
2021/04/24 03:04:07;;;;;;;14.65;5.72;;;;;;;4.27;67.05;102430.97;5060654;28;20048;-64
2021/04/24 03:06:34;;;;;;;11.60;5.22;;;;;;;4.27;67.36;102430.13;5071679;28;20057;-61
2021/04/24 03:09:01;;;;;;;17.70;4.75;;;;;;;4.19;67.52;102433.28;5065668;28;20064;-65
2021/04/24 03:11:28;;;;;;;9.95;4.85;;;;;;;4.12;68.16;102433.91;5068348;28;20124;-64
2021/04/24 03:13:54;;;;;;;16.65;4.93;;;;;;;3.96;68.59;102439.34;5066934;28;20047;-64
2021/04/24 03:16:20;;;;;;;11.95;5.13;;;;;;;3.98;68.72;102429.97;5067040;28;20105;-64
2021/04/24 03:18:46;;;;;;;13.38;5.28;;;;;;;3.89;69.12;102436.53;5066839;28;20135;-64
2021/04/24 03:21:12;;;;;;;13.55;5.68;;;;;;;3.94;68.58;102436.72;5067806;28;20131;-60
2021/04/24 03:23:39;;;;;;;15.52;4.93;;;;;;;3.97;68.89;102426.50;5069872;28;22676;-63
2021/04/24 03:26:05;;;;;;;12.27;5.18;;;;;;;3.99;68.51;102429.16;5070937;28;20102;-70
2021/04/24 03:28:31;;;;;;;13.45;5.03;;;;;;;4.02;67.93;102435.28;5065413;28;20044;-63
2021/04/24 03:30:57;;;;;;;13.27;5.88;;;;;;;4.02;68.19;102434.41;5067560;28;20091;-64
2021/04/24 03:33:23;;;;;;;17.75;5.80;;;;;;;3.99;68.41;102432.59;5063574;28;20044;-64
2021/04/24 03:35:49;;;;;;;19.27;5.90;;;;;;;4.04;68.20;102427.59;5065906;28;20052;-64
2021/04/24 03:38:15;;;;;;;11.73;5.65;;;;;;;4.00;68.99;102428.31;5070728;28;20553;-64
2021/04/24 03:40:42;;;;;;;13.68;5.43;;;;;;;3.96;69.05;102429.91;5070152;28;20044;-64
2021/04/24 03:43:08;;;;;;;13.05;5.50;;;;;;;3.88;69.76;102434.81;5061058;28;20051;-63
2021/04/24 03:45:35;;;;;;;13.23;5.28;;;;;;;3.82;70.01;102431.13;5059292;28;20049;-63
2021/04/24 03:48:02;;;;;;;10.93;5.25;;;;;;;3.81;70.20;102440.53;5062604;28;20044;-62
2021/04/24 03:50:28;;;;;;;19.05;5.32;;;;;;;3.76;70.36;102438.59;5065666;28;20079;-64
2021/04/24 03:52:54;;;;;;;11.63;5.38;;;;;;;3.83;70.50;102440.59;5067268;28;20049;-64
2021/04/24 03:55:22;;;;;;;16.30;6.05;;;;;;;3.79;70.57;102436.16;5061207;28;20048;-64
2021/04/24 03:57:50;;;;;;;14.90;5.68;;;;;;;3.81;70.55;102442.25;5057907;28;20052;-63
2021/04/24 04:00:18;;;;;;;16.85;6.20;;;;;;;3.77;70.34;102445.50;5066923;28;20045;-60
2021/04/24 04:02:46;;;;;;;14.85;5.10;;;;;;;3.70;70.89;102437.56;5061408;28;20045;-62
2021/04/24 04:05:13;;;;;;;16.38;6.22;;;;;;;3.78;70.66;102439.53;5057165;28;20040;-64
2021/04/24 04:07:39;;;;;;;14.05;6.65;;;;;;;3.73;70.95;102436.81;5067219;28;20048;-64
2021/04/24 04:10:06;;;;;;;17.45;5.72;;;;;;;3.76;70.38;102430.88;5062237;28;20513;-67
2021/04/24 04:12:32;;;;;;;15.18;5.70;;;;;;;3.81;70.62;102443.09;5063386;28;20053;-65
2021/04/24 04:14:59;;;;;;;14.10;5.57;;;;;;;3.80;70.46;102443.06;5059641;28;20064;-66
2021/04/24 04:17:25;;;;;;;17.17;6.50;;;;;;;3.76;70.58;102441.19;5062328;28;20052;-67
2021/04/24 04:19:51;;;;;;;19.48;6.68;;;;;;;3.74;70.77;102448.84;5058613;28;20052;-64
2021/04/24 04:22:17;;;;;;;12.90;5.95;;;;;;;3.76;70.85;102446.31;5061166;28;20525;-64
2021/04/24 04:24:43;;;;;;;14.23;5.40;;;;;;;3.73;70.69;102442.84;5061518;28;20110;-64
2021/04/24 04:27:09;;;;;;;16.00;5.38;;;;;;;3.74;71.17;102436.84;5063595;28;20049;-68
2021/04/24 04:29:35;;;;;;;17.05;5.25;;;;;;;3.77;70.99;102451.56;5061077;28;20080;-64
2021/04/24 04:32:01;;;;;;;17.27;7.60;;;;;;;3.77;70.70;102448.06;5062221;28;20555;-64
2021/04/24 04:34:27;;;;;;;18.08;6.65;;;;;;;3.69;71.16;102443.53;5060293;28;20411;-64
2021/04/24 04:36:53;;;;;;;20.63;5.50;;;;;;;3.71;71.61;102446.16;5061219;28;20170;-66
2021/04/24 04:39:19;;;;;;;14.48;6.18;;;;;;;3.77;71.33;102441.25;5063748;28;20053;-64
2021/04/24 04:41:45;;;;;;;19.98;6.28;;;;;;;3.80;71.30;102443.06;5062583;28;20102;-62
2021/04/24 04:44:11;;;;;;;15.10;5.90;;;;;;;3.82;71.14;102449.16;5059012;28;20092;-63
2021/04/24 04:46:37;;;;;;;15.93;6.25;;;;;;;3.92;70.80;102448.66;5058865;28;20079;-63
2021/04/24 04:49:04;;;;;;;12.23;5.10;;;;;;;3.94;71.02;102453.84;5060827;28;20616;-66
2021/04/24 04:51:30;;;;;;;15.68;5.78;;;;;;;3.96;70.35;102453.06;5063500;28;20056;-63
2021/04/24 04:53:56;;;;;;;15.10;6.05;;;;;;;4.00;70.38;102457.53;5062334;28;20056;-63
2021/04/24 04:56:22;;;;;;;16.67;6.15;;;;;;;4.15;69.93;102448.56;5061753;28;20135;-62
2021/04/24 04:58:49;;;;;;;16.10;6.93;;;;;;;4.26;69.48;102439.53;5063401;28;20048;-66
2021/04/24 05:01:15;;;;;;;17.52;7.25;;;;;;;4.30;69.58;102441.41;5063049;28;20049;-66
2021/04/24 05:03:41;;;;;;;15.23;6.07;;;;;;;4.41;69.24;102446.03;5065811;28;20045;-68
2021/04/24 05:06:08;;;;;;;18.88;7.20;;;;;;;4.44;68.88;102441.00;5056937;28;20044;-64
2021/04/24 05:08:35;;;;;;;15.90;6.88;;;;;;;4.43;69.36;102442.69;5060854;28;20494;-63
2021/04/24 05:11:02;;;;;;;17.90;6.07;;;;;;;4.53;69.45;102433.56;5062495;28;20060;-64
2021/04/24 05:13:28;;;;;;;14.82;6.15;;;;;;;4.63;68.53;102438.22;5067668;28;20044;-67
2021/04/24 05:15:54;;;;;;;15.10;5.82;;;;;;;4.61;68.80;102438.97;5066066;28;20111;-63
2021/04/24 05:18:20;;;;;;;17.30;6.22;;;;;;;4.69;68.82;102444.38;5063553;28;20436;-64
2021/04/24 05:20:46;;;;;;;17.88;6.30;;;;;;;4.67;68.32;102444.34;5059367;28;20066;-66
2021/04/24 05:23:13;;;;;;;13.70;6.53;;;;;;;4.72;68.88;102444.47;5059894;28;20109;-66
2021/04/24 05:25:40;;;;;;;12.55;6.38;;;;;;;4.71;67.71;102445.31;5063152;28;20630;-68
2021/04/24 05:28:06;;;;;;;18.70;6.30;;;;;;;4.69;68.74;102444.38;5061741;28;20041;-63
2021/04/24 05:30:32;;;;;;;20.63;7.65;;;;;;;4.65;68.57;102444.25;5060016;28;20513;-63
2021/04/24 05:32:58;;;;;;;16.98;7.35;;;;;;;4.69;68.35;102445.28;5059892;28;20056;-63
2021/04/24 05:35:25;;;;;;;23.42;7.53;;;;;;;4.74;69.13;102442.84;5054509;28;20047;-64
2021/04/24 05:37:51;;;;;;;19.58;6.35;;;;;;;4.85;68.21;102450.91;5061884;28;20044;-67
2021/04/24 05:40:19;;;;;;;12.07;6.22;;;;;;;4.94;68.12;102446.03;5063831;28;20045;-64
2021/04/24 05:42:45;;;;;;;15.38;8.95;;;;;;;5.09;67.74;102450.81;5062478;28;20095;-64
2021/04/24 05:45:14;;;;;;;14.80;8.30;;;;;;;5.20;67.58;102454.59;5061660;28;20056;-63
2021/04/24 05:47:41;;;;;;;17.92;7.88;;;;;;;5.40;67.01;102459.50;5062124;28;20840;-65
2021/04/24 05:50:10;;;;;;;16.25;6.85;;;;;;;5.51;66.98;102458.09;5063199;28;20056;-62
2021/04/24 05:52:36;;;;;;;16.30;6.80;;;;;;;5.65;66.17;102463.66;5064891;28;20450;-64
2021/04/24 05:55:04;;;;;;;18.20;7.28;;;;;;;5.66;66.21;102464.53;5058690;28;20053;-66
2021/04/24 05:57:31;;;;;;;18.35;7.45;;;;;;;5.72;65.84;102467.31;5064899;28;20090;-67
2021/04/24 05:59:57;;;;;;;16.52;6.55;;;;;;;5.86;65.90;102465.97;5063062;28;20518;-64
2021/04/24 06:02:23;;;;;;;25.83;8.50;;;;;;;5.93;65.23;102469.63;5067123;28;20071;-64
2021/04/24 06:04:49;;;;;;;13.85;6.32;;;;;;;5.91;65.51;102467.00;5065960;28;20052;-62
2021/04/24 06:07:15;;;;;;;22.92;6.68;;;;;;;6.07;65.15;102473.50;5063991;28;20567;-67
2021/04/24 06:09:41;;;;;;;20.95;7.55;;;;;;;6.18;64.92;102473.78;5084270;22;20779;-65
2021/04/24 06:12:08;;;;;;;15.55;7.25;;;;;;;6.26;65.03;102473.13;5063022;28;20048;-65
2021/04/24 06:14:35;;;;;;;16.77;6.40;;;;;;;6.34;64.89;102475.06;5062178;28;20498;-65
2021/04/24 06:17:02;;;;;;;15.77;7.03;;;;;;;6.14;65.15;102463.34;5066705;28;20052;-66
2021/04/24 06:19:28;;;;;;;18.05;6.80;;;;;;;6.14;65.54;102471.94;5063605;28;20143;-65
2021/04/24 06:21:54;;;;;;;16.17;7.93;;;;;;;6.00;66.17;102471.56;5067231;28;20037;-65
2021/04/24 06:24:21;;;;;;;15.35;7.28;;;;;;;6.05;66.42;102474.28;5059000;28;20052;-65
2021/04/24 06:26:47;;;;;;;17.88;6.40;;;;;;;6.09;66.53;102478.72;5067939;28;20052;-65
2021/04/24 06:29:13;;;;;;;23.17;7.45;;;;;;;6.26;65.69;102470.53;5064280;28;20044;-65
2021/04/24 06:31:40;;;;;;;20.10;7.05;;;;;;;6.14;66.30;102477.09;5057281;28;20040;-65
2021/04/24 06:34:06;;;;;;;17.40;7.15;;;;;;;6.13;66.33;102466.75;5059815;28;20052;-65
2021/04/24 06:36:32;;;;;;;15.68;7.95;;;;;;;6.31;65.73;102463.78;5068084;28;20052;-65
2021/04/24 06:38:59;;;;;;;15.30;7.80;;;;;;;6.44;66.07;102465.84;5065863;28;20132;-65
2021/04/24 06:41:25;;;;;;;20.83;7.93;;;;;;;6.49;65.93;102461.69;5066592;28;20059;-65
2021/04/24 06:43:51;;;;;;;14.13;7.18;;;;;;;6.61;65.88;102453.34;5063262;28;20052;-66
2021/04/24 06:46:17;;;;;;;17.83;7.60;;;;;;;6.71;65.82;102459.63;5061762;28;20048;-66
2021/04/24 06:48:44;;;;;;;14.60;7.43;;;;;;;6.66;65.08;102466.38;5063179;28;20072;-64
2021/04/24 06:51:10;;;;;;;23.08;8.70;;;;;;;6.71;65.75;102458.75;5061115;28;20046;-66
2021/04/24 06:53:36;;;;;;;17.52;7.97;;;;;;;6.88;65.33;102460.06;5063938;28;20455;-65
2021/04/24 06:56:04;;;;;;;16.02;7.20;;;;;;;6.81;65.69;102459.03;5068626;28;20083;-65
2021/04/24 06:58:30;;;;;;;15.85;7.30;;;;;;;6.99;65.39;102455.13;5064361;28;20426;-65
2021/04/24 07:00:56;;;;;;;21.73;8.55;;;;;;;6.93;65.58;102460.16;5064122;28;20048;-65
2021/04/24 07:03:22;;;;;;;18.50;7.05;;;;;;;6.82;65.65;102453.03;5058851;28;20067;-65
2021/04/24 07:05:49;;;;;;;19.33;7.80;;;;;;;6.78;65.72;102456.34;5063570;28;20521;-65
2021/04/24 07:08:15;;;;;;;14.20;6.85;;;;;;;6.80;65.84;102441.75;5062146;28;20057;-64
2021/04/24 07:10:41;;;;;;;18.42;7.55;;;;;;;6.79;65.78;102444.28;5063401;28;20412;-65
2021/04/24 07:13:07;;;;;;;16.65;7.10;;;;;;;6.84;66.01;102448.72;5059404;28;20044;-64
2021/04/24 07:15:33;;;;;;;19.15;6.72;;;;;;;6.82;65.73;102447.84;5057911;28;20041;-63
2021/04/24 07:17:59;;;;;;;15.85;6.63;;;;;;;6.87;65.61;102447.94;5065661;28;20041;-64
2021/04/24 07:20:25;;;;;;;18.42;7.20;;;;;;;6.83;65.52;102447.00;5062557;28;20068;-63
2021/04/24 07:22:52;;;;;;;14.68;6.45;;;;;;;7.00;65.38;102449.13;5061334;28;20044;-65
2021/04/24 07:25:18;;;;;;;15.93;7.03;;;;;;;6.94;65.23;102448.94;5065613;28;20070;-64
2021/04/24 07:27:44;;;;;;;15.13;7.47;;;;;;;6.93;65.02;102449.81;5063733;28;20131;-66
2021/04/24 07:30:11;;;;;;;14.68;6.35;;;;;;;6.92;65.02;102451.50;5061342;28;20535;-65
2021/04/24 07:32:38;;;;;;;15.85;6.45;;;;;;;6.96;65.96;102444.69;5063436;28;20094;-67
2021/04/24 07:35:06;;;;;;;14.95;6.45;;;;;;;7.11;65.42;102442.47;5054645;28;20497;-65
2021/04/24 07:37:32;;;;;;;15.00;6.65;;;;;;;7.10;64.91;102443.31;5062519;28;20048;-63
2021/04/24 07:40:00;;;;;;;12.88;5.68;;;;;;;7.20;64.59;102440.94;5062432;28;20052;-65
2021/04/24 07:42:26;;;;;;;14.68;6.03;;;;;;;7.13;65.14;102437.31;5063442;28;20048;-65
2021/04/24 07:44:52;;;;;;;12.98;5.15;;;;;;;7.18;63.75;102447.78;5062685;28;20041;-65
2021/04/24 07:47:18;;;;;;;15.15;5.82;;;;;;;7.12;62.13;102449.41;5065318;28;20044;-66
2021/04/24 07:49:44;;;;;;;13.13;5.13;;;;;;;7.15;62.61;102439.09;5060947;28;20494;-66
2021/04/24 07:52:11;;;;;;;10.23;4.25;;;;;;;7.30;60.89;102443.75;5063279;28;20040;-64
2021/04/24 07:54:42;;;;;;;12.30;4.57;;;;;;;7.25;59.47;102447.06;5064054;28;20064;-66
2021/04/24 07:57:09;;;;;;;11.90;4.82;;;;;;;7.20;60.11;102441.78;5063484;28;20044;-65
2021/04/24 07:59:35;;;;;;;14.15;4.82;;;;;;;7.21;60.12;102442.69;5065752;28;20061;-65
2021/04/24 08:02:01;;;;;;;11.43;3.92;;;;;;;7.27;59.23;102437.63;5061014;28;20056;-67
2021/04/24 08:04:27;;;;;;;13.77;3.70;;;;;;;7.30;59.00;102440.28;5064212;28;20056;-65
2021/04/24 08:06:53;;;;;;;12.85;4.78;;;;;;;7.28;58.86;102439.38;5067749;28;20135;-66
2021/04/24 08:09:19;;;;;;;11.38;4.47;;;;;;;7.35;59.31;102436.06;5060394;28;20048;-66
2021/04/24 08:11:45;;;;;;;13.68;4.90;;;;;;;7.61;59.60;102435.78;5064036;28;20052;-64
2021/04/24 08:14:12;;;;;;;13.20;4.57;;;;;;;7.70;59.23;102442.84;5061222;28;20053;-64
2021/04/24 08:16:37;;;;;;;7.03;3.42;;;;;;;7.74;56.55;102445.50;5062678;28;20051;-66
2021/04/24 08:19:04;;;;;;;9.65;3.70;;;;;;;7.70;55.28;102435.94;5065765;28;20410;-67
2021/04/24 08:21:30;;;;;;;8.40;3.55;;;;;;;7.66;55.98;102434.13;5068569;28;20048;-67
2021/04/24 08:23:59;;;;;;;9.73;2.83;;;;;;;7.61;55.15;102435.78;5065189;28;20056;-66
2021/04/24 08:26:26;;;;;;;5.68;2.35;;;;;;;7.69;54.37;102436.78;5065038;28;20109;-66
2021/04/24 08:28:52;;;;;;;7.95;2.83;;;;;;;7.68;54.17;102429.88;5065526;28;20049;-67
2021/04/24 08:31:19;;;;;;;6.80;3.42;;;;;;;7.85;53.74;102426.72;5064131;28;20048;-65
2021/04/24 08:33:45;;;;;;;9.23;2.70;;;;;;;7.80;53.17;102436.13;5058756;28;20053;-66
2021/04/24 08:36:11;;;;;;;8.10;3.78;;;;;;;7.85;53.74;102443.16;5060195;28;20045;-66
2021/04/24 08:38:37;;;;;;;9.25;2.80;;;;;;;7.91;53.48;102440.69;5068631;28;20054;-67
2021/04/24 08:41:03;;;;;;;7.65;3.10;;;;;;;7.95;52.34;102433.81;5061976;28;20045;-66
2021/04/24 08:43:30;;;;;;;8.73;2.92;;;;;;;7.89;51.85;102432.00;5063458;28;20048;-64
2021/04/24 08:46:00;;;;;;;14.32;3.50;;;;;;;7.96;53.34;102432.13;5060835;28;20510;-67
2021/04/24 08:48:28;;;;;;;10.82;3.28;;;;;;;7.94;53.95;102421.72;5062439;28;20049;-67
2021/04/24 08:50:54;;;;;;;9.27;4.00;;;;;;;8.11;54.04;102423.78;5058571;28;20053;-62
2021/04/24 08:53:21;;;;;;;12.52;3.55;;;;;;;8.23;54.27;102421.41;5060071;28;20052;-65
2021/04/24 08:55:48;;;;;;;10.52;3.75;;;;;;;8.31;54.86;102417.22;5062695;28;20467;-66
2021/04/24 08:58:15;;;;;;;8.27;3.67;;;;;;;8.50;54.25;102420.16;5066284;28;20059;-67
2021/04/24 09:00:43;;;;;;;11.00;3.67;;;;;;;8.62;53.35;102415.19;5066923;28;20052;-66
2021/04/24 09:03:11;;;;;;;9.27;3.75;;;;;;;8.70;53.45;102423.94;5055976;28;20306;-67
2021/04/24 09:05:39;;;;;;;9.20;3.53;;;;;;;8.58;52.30;102421.16;5061839;28;20557;-67
2021/04/24 09:08:07;;;;;;;7.25;3.17;;;;;;;8.60;51.95;102418.56;5057211;28;20056;-65
2021/04/24 09:10:36;;;;;;;10.57;4.20;;;;;;;8.55;52.43;102415.91;5064274;28;20060;-64
2021/04/24 09:13:01;;;;;;;9.25;3.92;;;;;;;8.76;51.23;102419.69;5066389;28;20049;-66
2021/04/24 09:15:28;;;;;;;8.35;3.50;;;;;;;8.63;51.33;102416.94;5065239;28;20113;-66
2021/04/24 09:17:59;;;;;;;12.10;3.47;;;;;;;8.64;51.81;102420.38;5065422;28;20052;-66
2021/04/24 09:20:28;;;;;;;9.20;3.70;;;;;;;8.89;51.94;102416.44;5063255;28;20060;-64
2021/04/24 09:23:04;;;;;;;11.23;3.53;;;;;;;8.92;51.12;102423.38;5061790;28;20132;-63
2021/04/24 09:25:35;;;;;;;10.27;3.60;;;;;;;8.88;51.94;102421.63;5061799;28;20040;-64
2021/04/24 09:28:02;;;;;;;7.30;3.75;;;;;;;8.98;52.15;102426.97;5052026;28;20513;-65
2021/04/24 09:30:31;;;;;;;8.45;3.42;;;;;;;9.11;52.00;102421.94;5056334;28;20051;-66
2021/04/24 09:33:03;;;;;;;7.90;3.70;;;;;;;9.13;51.93;102415.91;5058776;28;20048;-67
2021/04/24 09:35:38;;;;;;;10.10;3.78;;;;;;;9.22;51.04;102420.38;5061794;28;20056;-67
2021/04/24 09:38:05;;;;;;;;;;;;;;;9.43;51.16;102413.72;5068887;28;20136;-67
2021/04/24 09:40:31;;;;;;;10.55;4.13;;;;;;;9.60;50.42;102411.31;5068921;28;19932;-64
2021/04/24 09:42:58;;;;;;;8.98;3.58;;;;;;;9.78;50.35;102411.50;5064920;28;20063;-65
2021/04/24 09:45:28;;;;;;;7.28;3.38;;;;;;;9.82;49.17;102402.06;5067207;28;20045;-66
2021/04/24 09:47:54;;;;;;;7.40;3.47;;;;;;;9.69;49.02;102398.41;5064995;28;20048;-63
2021/04/24 09:50:23;;;;;;;6.30;2.88;;;;;;;9.70;48.38;102417.50;5064715;28;20131;-64
2021/04/24 09:52:49;;;;;;;10.68;3.30;;;;;;;9.74;47.84;102407.16;5066880;28;20041;-64
2021/04/24 09:55:35;;;;;;;8.73;3.20;;;;;;;10.07;48.72;102402.28;5061755;28;20055;-67
2021/04/24 09:58:03;;;;;;;5.85;3.00;;;;;;;10.13;46.11;102388.47;5063437;28;20048;-64
2021/04/24 10:00:29;;;;;;;5.80;3.10;;;;;;;9.98;45.97;102392.69;5062481;28;20052;-66
2021/04/24 10:02:57;;;;;;;5.38;2.50;;;;;;;9.92;47.07;102392.59;5066913;28;20052;-65
2021/04/24 10:05:25;;;;;;;7.97;3.03;;;;;;;9.75;46.95;102388.13;5065532;28;20498;-66
2021/04/24 10:07:52;;;;;;;6.47;2.97;;;;;;;9.85;46.99;102396.88;5066779;28;20091;-65
2021/04/24 10:10:38;;;;;;;7.15;3.30;;;;;;;10.04;47.74;102391.84;5063946;28;20051;-66
2021/04/24 10:13:06;;;;;;;6.80;3.45;;;;;;;9.99;46.62;102381.41;5064772;28;20113;-65
2021/04/24 10:15:37;;;;;;;10.48;3.00;;;;;;;10.05;46.48;102378.00;5067693;28;20052;-66
2021/04/24 10:18:04;;;;;;;8.45;3.42;;;;;;;9.98;47.11;102364.09;5066076;28;20052;-66
2021/04/24 10:20:32;;;;;;;8.05;3.17;;;;;;;10.02;45.76;102373.66;5063643;28;20052;-68
2021/04/24 10:23:00;;;;;;;7.32;2.95;;;;;;;10.07;46.09;102378.88;5064379;28;20048;-68
2021/04/24 10:25:26;;;;;;;7.65;3.13;;;;;;;9.92;45.68;102374.41;5064879;28;20044;-68
2021/04/24 10:27:53;;;;;;;7.25;2.95;;;;;;;9.81;46.75;102376.91;5066035;28;20040;-67
2021/04/24 10:30:20;;;;;;;7.07;3.00;;;;;;;9.84;46.51;102378.66;5065282;28;20052;-70
2021/04/24 10:32:46;;;;;;;9.43;4.00;;;;;;;9.88;46.61;102370.91;5066122;28;20048;-68
2021/04/24 10:35:13;;;;;;;7.85;3.10;;;;;;;10.02;46.13;102370.19;5061891;28;20049;-66
2021/04/24 10:37:40;;;;;;;8.15;2.83;;;;;;;10.00;46.33;102370.16;5065676;28;20057;-66
2021/04/24 10:40:09;;;;;;;7.00;3.13;;;;;;;10.11;47.42;102368.53;5069502;28;20048;-67
2021/04/24 10:42:35;;;;;;;7.50;3.38;;;;;;;10.19;46.62;102358.22;5059717;28;20040;-66
2021/04/24 10:45:06;;;;;;;8.77;2.80;;;;;;;10.32;46.17;102353.97;5063326;28;20041;-66
2021/04/24 10:47:55;;;;;;;9.82;3.00;;;;;;;10.41;45.24;102358.41;5066205;28;20175;-66
2021/04/24 10:50:23;;;;;;;5.55;2.42;;;;;;;10.37;44.77;102354.00;5056110;28;20114;-65
2021/04/24 10:52:51;;;;;;;10.38;3.78;;;;;;;10.51;44.72;102339.41;5068395;28;20109;-66
2021/04/24 10:55:28;;;;;;;6.53;2.20;;;;;;;10.58;45.09;102354.19;5065338;28;20048;-66
2021/04/24 10:57:56;;;;;;;5.88;2.55;;;;;;;10.72;42.79;102345.63;5063436;28;20063;-68
2021/04/24 11:00:47;;;;;;;6.95;2.63;;;;;;;10.73;44.47;102342.13;5063710;28;20067;-63
2021/04/24 11:03:41;;;;;;;5.55;2.60;;;;;;;10.95;42.62;102348.34;5062300;28;20060;-67
2021/04/24 11:06:10;;;;;;;6.32;2.33;;;;;;;10.89;41.28;102357.00;5063694;28;20061;-69
2021/04/24 11:08:36;;;;;;;6.78;2.17;;;;;;;11.00;41.79;102336.22;5060072;28;20124;-68
2021/04/24 11:11:05;;;;;;;4.22;2.13;;;;;;;10.89;42.21;102328.34;5067916;28;20054;-67
2021/04/24 11:13:37;;;;;;;8.65;2.13;;;;;;;11.09;42.52;102324.09;5063322;28;20057;-67
2021/04/24 11:16:05;;;;;;;5.68;2.50;;;;;;;11.11;43.59;102332.78;5064898;28;20147;-67
2021/04/24 11:18:33;;;;;;;5.93;2.42;;;;;;;11.22;43.24;102328.50;5063553;28;20048;-66
2021/04/24 11:21:02;;;;;;;9.43;2.80;;;;;;;11.38;43.12;102320.75;5063356;28;20072;-65
2021/04/24 11:23:49;;;;;;;5.57;2.53;;;;;;;11.20;42.44;102319.78;5064136;28;20048;-65
2021/04/24 11:26:19;;;;;;;6.80;2.60;;;;;;;11.11;42.70;102323.25;5055863;28;20048;-65